Apple Creek, OH (44606)

6:41 AM EDT on August 28, 2015 (GMT -0400)
Kidron | | Change Station
CLOSE
Current Station
Personal Weather Station
Location: Apple Creek, OH
Elevation: 1220 ft
Nearby Weather Stations

Elev 1220 ft 40.73 °N, 81.75 °W | Updated 2 minutes ago

Mostly Cloudy
Mostly Cloudy
49.1 °F
Feels Like 49 °F
N
0.0
Wind Variable Wind from ESE

Today
High -- | Low -- °F
--% Chance of Precip.
Yesterday
High -- | Low -- °F
Precip. -- in
6:50 AM 8:06 PM
Waxing Gibbous, 97% visible
Pressure 30.21 in
Visibility 1.2 miles
Clouds Overcast 200 ft
Windchill 49 °F
Dew Point 48 °F
Humidity 97%
Rainfall 0.00 in
Snow Depth Not available.
UV 0 out of 12
Pollen 9.70 out of 12
Air Quality Not available.
Flu Activity Not available.
SPECI KBJJ 281034Z AUTO 00000KT 1 1/4SM BR OVC002 08/07 A3021 RMK AO2 T00780072 TSNO
Pressure 30.21 in
Visibility 1.2 miles
Clouds Overcast 200 ft
Windchill 49 °F
Dew Point 48 °F
Humidity 97%
Rainfall 0.00 in
Snow Depth Not available.
UV 0 out of 12
Pollen 9.70 out of 12
Air Quality Not available.
Flu Activity Not available.
SPECI KBJJ 281034Z AUTO 00000KT 1 1/4SM BR OVC002 08/07 A3021 RMK AO2 T00780072 TSNO

10-Day Weather Forecast

×

Almanac

Astronomy

Aug. 28, 2015 Rise Set
Actual Time
Civil Twilight
Nautical Twilight
Astronomical Twilight
Moon
Length of Visible Light
Length of Day
Tomorrow will be .
, % of the Moon is Illuminated

Today's Extremes

State Highs State Lows

Community

WunderPhotos

Upload Photos

1,850,368 photos uploaded!

WunderBlogs® & News

Nearby

Air Quality

  Air Quality AQ Index Pollutant
Not available.

Snow Depth

Station Depth Elevation

Earthquake Activity

City Distance Mag. Time & Date
Minimum magnitude displayed is 2.5.

Coastal Water Temperatures

Place Temperature

Stations

Nearby Weather Stations

Station Location Temp. Windchill Dew Point Humidity Wind Precip. Elev Updated Type